Time;durP1;ratioP1;P1;durP2;ratioP2;P2;SDS_P1;SDS_P2;PMS_P1;PMS_P2;Temp;Humidity;BMP_temperature;BMP_pressure;BME280_temperature;BME280_humidity;BME280_pressure;Samples;Min_cycle;Max_cycle;Signal;HPM_P1;HPM_P2
2022/11/15 00:01:25;;;;;;;16.45;9.65;;;10.20;79.20;;;;;;5011019;28;20057;-62
2022/11/15 00:03:51;;;;;;;16.10;10.48;;;10.20;79.90;;;;;;5010708;28;20087;-61
2022/11/15 00:06:17;;;;;;;16.63;10.48;;;10.20;80.00;;;;;;5010549;28;20037;-62
2022/11/15 00:08:42;;;;;;;17.30;11.30;;;10.40;79.00;;;;;;5010365;28;20030;-60
2022/11/15 00:11:11;;;;;;;16.88;10.60;;;10.40;79.10;;;;;;5010306;28;20059;-62
2022/11/15 00:13:36;;;;;;;18.05;9.60;;;10.20;79.30;;;;;;5010155;28;20029;-62
2022/11/15 00:16:02;;;;;;;16.98;10.10;;;10.30;80.00;;;;;;5013113;28;20075;-61
2022/11/15 00:18:29;;;;;;;16.83;11.10;;;10.20;79.50;;;;;;5014157;28;20060;-65
2022/11/15 00:20:55;;;;;;;14.25;9.07;;;10.30;80.30;;;;;;5013726;28;20032;-60
2022/11/15 00:23:21;;;;;;;18.77;11.55;;;10.40;79.80;;;;;;5014166;28;20458;-60
2022/11/15 00:25:47;;;;;;;17.48;10.55;;;10.40;79.60;;;;;;5013881;28;20105;-61
2022/11/15 00:28:13;;;;;;;15.88;8.88;;;10.40;79.90;;;;;;5013520;28;20038;-61
2022/11/15 00:30:38;;;;;;;19.02;10.82;;;10.30;79.90;;;;;;5013384;28;20084;-60
2022/11/15 00:33:05;;;;;;;15.23;9.73;;;10.50;79.90;;;;;;5013675;28;20122;-60
2022/11/15 00:35:34;;;;;;;20.05;10.85;;;10.50;79.70;;;;;;5013630;28;20037;-62
2022/11/15 00:38:01;;;;;;;15.10;9.90;;;10.50;80.10;;;;;;5012100;28;20385;-60
2022/11/15 00:40:27;;;;;;;19.05;10.60;;;10.40;80.80;;;;;;5013306;28;20022;-62
2022/11/15 00:42:52;;;;;;;19.77;10.70;;;10.50;81.10;;;;;;5013927;28;20028;-61
2022/11/15 00:45:18;;;;;;;12.93;8.88;;;10.60;81.30;;;;;;5013546;28;20033;-60
2022/11/15 00:47:46;;;;;;;20.60;10.90;;;10.60;81.30;;;;;;5013594;28;20033;-61
2022/11/15 00:50:12;;;;;;;17.75;11.18;;;10.50;81.10;;;;;;5013475;28;20030;-61
2022/11/15 00:52:37;;;;;;;18.23;10.77;;;10.50;82.00;;;;;;5011752;28;20366;-61
2022/11/15 00:55:03;;;;;;;16.27;10.82;;;10.30;81.90;;;;;;5013146;28;20026;-61
2022/11/15 00:57:29;;;;;;;19.23;11.60;;;10.20;82.70;;;;;;5013616;28;20022;-60
2022/11/15 00:59:54;;;;;;;17.58;10.65;;;10.50;83.30;;;;;;5013294;28;20029;-60
2022/11/15 01:02:20;;;;;;;17.05;10.75;;;10.60;82.90;;;;;;5013053;28;20075;-61
2022/11/15 01:04:46;;;;;;;20.52;10.20;;;10.70;82.90;;;;;;5012998;28;20538;-60
2022/11/15 01:07:12;;;;;;;16.00;9.75;;;10.60;82.90;;;;;;5011803;28;20029;-60
2022/11/15 01:09:37;;;;;;;21.42;11.65;;;10.70;83.20;;;;;;5013153;28;20378;-60
2022/11/15 01:12:03;;;;;;;16.08;10.00;;;10.70;83.40;;;;;;5012932;28;20022;-62
2022/11/15 01:14:29;;;;;;;17.65;11.45;;;10.60;83.60;;;;;;5011604;28;20040;-61
2022/11/15 01:16:55;;;;;;;17.13;10.70;;;10.60;83.70;;;;;;5013088;28;20463;-61
2022/11/15 01:19:21;;;;;;;18.92;11.30;;;10.60;84.00;;;;;;5013037;28;20129;-62
2022/11/15 01:21:50;;;;;;;17.45;10.10;;;10.50;84.30;;;;;;5012768;28;20046;-60
2022/11/15 01:24:15;;;;;;;20.65;10.40;;;10.60;84.60;;;;;;5012793;28;20443;-61
2022/11/15 01:26:41;;;;;;;18.20;11.55;;;10.60;84.60;;;;;;5011030;28;20040;-61
2022/11/15 01:29:07;;;;;;;18.63;10.30;;;10.70;84.50;;;;;;5011837;28;20018;-60
2022/11/15 01:31:33;;;;;;;16.08;10.95;;;10.80;84.30;;;;;;5012673;28;20030;-63
2022/11/15 01:34:01;;;;;;;17.63;10.60;;;10.60;84.80;;;;;;5012865;28;20030;-61
2022/11/15 01:36:26;;;;;;;16.77;10.45;;;10.60;85.00;;;;;;5013493;28;20033;-61
2022/11/15 01:38:58;;;;;;;24.17;11.77;;;10.60;85.10;;;;;;5012569;28;20370;-61
2022/11/15 01:41:30;;;;;;;18.50;11.00;;;10.80;86.00;;;;;;5012562;28;20486;-61
2022/11/15 01:44:17;;;;;;;19.08;10.50;;;10.80;86.40;;;;;;5011437;28;20026;-61
2022/11/15 01:46:47;;;;;;;18.70;7.85;;;10.90;86.50;;;;;;5012344;28;20108;-61
2022/11/15 01:49:17;;;;;;;14.02;7.55;;;11.10;86.50;;;;;;5012547;28;20075;-61
2022/11/15 01:51:43;;;;;;;12.10;6.80;;;11.30;86.50;;;;;;5012524;28;20109;-61
2022/11/15 01:54:15;;;;;;;10.50;7.53;;;11.40;86.40;;;;;;5012189;28;20088;-61
2022/11/15 01:56:47;;;;;;;12.10;6.85;;;11.40;86.30;;;;;;5012438;28;20026;-61
2022/11/15 01:59:13;;;;;;;10.88;7.88;;;11.50;86.50;;;;;;5012388;28;20025;-61
2022/11/15 02:01:40;;;;;;;8.70;6.25;;;11.50;86.50;;;;;;5012182;28;20022;-60
2022/11/15 02:04:18;;;;;;;11.40;7.38;;;11.50;86.60;;;;;;5010810;28;20029;-60
2022/11/15 02:06:45;;;;;;;13.52;7.07;;;11.70;86.50;;;;;;5012530;28;20030;-61
2022/11/15 02:09:12;;;;;;;11.73;6.85;;;11.70;86.40;;;;;;5012254;28;20108;-60
2022/11/15 02:11:37;;;;;;;10.70;6.82;;;11.80;86.00;;;;;;5012020;28;20034;-61
2022/11/15 02:14:05;;;;;;;10.60;5.82;;;11.80;86.10;;;;;;5011864;28;20346;-61
2022/11/15 02:16:48;;;;;;;13.50;7.28;;;11.90;86.00;;;;;;5011969;28;20057;-61
2022/11/15 02:19:41;;;;;;;12.98;6.25;;;11.90;85.60;;;;;;5012199;28;20079;-61
2022/11/15 02:22:41;;;;;;;10.75;6.47;;;11.90;85.70;;;;;;5010645;28;20026;-61
2022/11/15 02:25:15;;;;;;;12.43;5.47;;;11.90;85.60;;;;;;5011870;28;20029;-61
2022/11/15 02:28:11;;;;;;;11.70;7.30;;;12.10;85.70;;;;;;5010457;28;20037;-60
2022/11/15 02:30:49;;;;;;;8.25;5.60;;;12.10;85.30;;;;;;5011686;28;20033;-62
2022/11/15 02:33:18;;;;;;;11.15;5.70;;;12.10;85.40;;;;;;5011981;28;20061;-61
2022/11/15 02:36:21;;;;;;;6.03;4.93;;;12.10;85.20;;;;;;5011891;28;20465;-60
2022/11/15 02:38:59;;;;;;;9.13;6.10;;;12.10;85.40;;;;;;5032891;28;20049;-60
2022/11/15 02:41:53;;;;;;;8.85;5.30;;;12.20;84.90;;;;;;5011854;28;20063;-60
2022/11/15 02:44:26;;;;;;;8.07;5.90;;;12.00;85.30;;;;;;5011819;28;20075;-62
2022/11/15 02:47:14;;;;;;;9.18;6.10;;;12.20;85.40;;;;;;5011782;28;20033;-61
2022/11/15 02:50:00;;;;;;;7.78;5.18;;;12.30;85.10;;;;;;5011714;28;20030;-60
2022/11/15 02:52:26;;;;;;;6.55;5.28;;;12.20;85.10;;;;;;5011483;28;20032;-60
2022/11/15 02:54:55;;;;;;;9.05;4.80;;;12.30;84.90;;;;;;5011435;28;20030;-61
2022/11/15 02:57:42;;;;;;;8.63;5.50;;;12.10;85.10;;;;;;5011364;28;20026;-61
2022/11/15 03:00:34;;;;;;;9.30;5.57;;;12.20;85.40;;;;;;5011634;28;20029;-61
2022/11/15 03:03:12;;;;;;;16.30;6.22;;;12.10;85.70;;;;;;5013064;28;20087;-61
2022/11/15 03:05:47;;;;;;;8.07;5.05;;;12.30;85.20;;;;;;5011689;28;20033;-61
2022/11/15 03:08:39;;;;;;;9.90;5.40;;;12.30;85.10;;;;;;5011355;28;20079;-62
2022/11/15 03:11:17;;;;;;;9.00;5.55;;;12.40;84.90;;;;;;5011533;28;20031;-62
2022/11/15 03:13:57;;;;;;;9.35;5.32;;;12.50;84.50;;;;;;5011502;28;20022;-62
2022/11/15 03:16:30;;;;;;;;;;;12.50;84.30;;;;;;5011748;28;20520;-61
2022/11/15 03:19:06;;;;;;;9.85;5.57;;;12.50;84.40;;;;;;5011208;28;20398;-62
2022/11/15 03:21:34;;;;;;;9.27;5.65;;;12.50;84.30;;;;;;5011140;28;20033;-62
2022/11/15 03:24:05;;;;;;;8.05;5.82;;;12.40;84.40;;;;;;5011140;28;20033;-61
2022/11/15 03:26:35;;;;;;;8.30;5.07;;;12.50;84.60;;;;;;5011480;28;20036;-62
2022/11/15 03:29:11;;;;;;;11.40;6.00;;;12.40;84.70;;;;;;5011063;28;20075;-61
2022/11/15 03:31:46;;;;;;;9.07;5.38;;;12.50;84.80;;;;;;5011102;28;20087;-61
2022/11/15 03:34:36;;;;;;;14.70;6.22;;;12.50;84.50;;;;;;5012022;28;20030;-61
2022/11/15 03:37:01;;;;;;;11.07;6.10;;;12.30;84.90;;;;;;5011043;28;20122;-61
2022/11/15 03:39:28;;;;;;;10.82;5.70;;;12.30;85.20;;;;;;5011002;28;20046;-60
2022/11/15 03:42:00;;;;;;;8.02;4.70;;;12.30;85.10;;;;;;5010787;28;20107;-60
2022/11/15 03:44:40;;;;;;;9.00;5.35;;;12.40;85.20;;;;;;5011162;28;20082;-59
2022/11/15 03:47:14;;;;;;;11.50;5.68;;;12.40;84.90;;;;;;5010718;28;20385;-60
2022/11/15 03:49:45;;;;;;;11.73;5.35;;;12.40;84.90;;;;;;5010584;28;20029;-60
2022/11/15 03:52:11;;;;;;;12.30;6.25;;;12.40;85.10;;;;;;5010658;28;20030;-60
2022/11/15 03:54:46;;;;;;;8.73;6.35;;;12.30;85.20;;;;;;5010326;28;20064;-60
2022/11/15 03:57:12;;;;;;;9.38;5.65;;;12.30;85.40;;;;;;5010735;28;20030;-60
2022/11/15 03:59:38;;;;;;;8.25;4.45;;;12.40;85.30;;;;;;5010748;28;20037;-60
2022/11/15 04:02:03;;;;;;;8.23;5.03;;;12.30;85.50;;;;;;5009114;28;20386;-60
2022/11/15 04:04:29;;;;;;;8.43;5.15;;;12.40;85.60;;;;;;5008997;28;20030;-60
2022/11/15 04:06:54;;;;;;;6.78;4.78;;;12.40;85.30;;;;;;5010440;28;20034;-61
2022/11/15 04:09:20;;;;;;;11.80;5.68;;;12.50;85.20;;;;;;5010413;28;20075;-61
2022/11/15 04:11:46;;;;;;;9.50;5.70;;;12.40;85.40;;;;;;5009175;28;20026;-61
2022/11/15 04:14:11;;;;;;;7.95;5.63;;;12.30;85.60;;;;;;5010251;28;20026;-60
2022/11/15 04:16:37;;;;;;;12.00;5.63;;;12.40;85.80;;;;;;5010550;28;20022;-60
2022/11/15 04:24:41;;;;;;;8.60;5.10;;;12.30;85.60;;;;;;5010410;28;20032;-60
2022/11/15 04:27:07;;;;;;;10.95;5.93;;;12.40;85.60;;;;;;5010388;28;20022;-60
2022/11/15 04:29:35;;;;;;;9.80;6.25;;;12.40;85.60;;;;;;5010532;28;20490;-60
2022/11/15 04:32:02;;;;;;;8.75;5.10;;;12.40;85.90;;;;;;5008980;28;20428;-61
2022/11/15 04:34:28;;;;;;;7.53;5.18;;;12.50;85.70;;;;;;5010097;28;20047;-60
2022/11/15 04:37:12;;;;;;;11.13;6.07;;;12.40;85.60;;;;;;5010230;28;20241;-61
2022/11/15 04:39:38;;;;;;;7.47;4.70;;;12.40;85.50;;;;;;5009966;28;20025;-62
2022/11/15 04:42:04;;;;;;;6.45;5.00;;;12.50;85.50;;;;;;5010206;28;20496;-61
2022/11/15 04:44:29;;;;;;;8.45;5.63;;;12.50;85.60;;;;;;5010450;28;20022;-61
2022/11/15 04:46:55;;;;;;;8.10;5.25;;;12.60;85.70;;;;;;5010254;28;20030;-61
2022/11/15 04:49:21;;;;;;;7.45;4.95;;;12.50;85.50;;;;;;5010159;28;20033;-61
2022/11/15 04:51:46;;;;;;;7.82;5.93;;;12.60;85.60;;;;;;5010232;28;20071;-61
2022/11/15 04:54:12;;;;;;;6.55;4.47;;;12.70;85.20;;;;;;5010210;28;20385;-61
2022/11/15 04:56:38;;;;;;;10.13;4.60;;;12.80;85.10;;;;;;5010151;28;20033;-61
2022/11/15 04:59:03;;;;;;;7.55;5.00;;;12.70;85.20;;;;;;5010080;28;20018;-61
2022/11/15 05:01:29;;;;;;;7.75;5.28;;;12.60;85.40;;;;;;5011913;28;20071;-60
2022/11/15 05:06:39;;;;;;;7.50;4.93;;;12.80;85.10;;;;;;5012573;28;20066;-60
2022/11/15 05:09:05;;;;;;;7.65;5.07;;;12.80;84.80;;;;;;5013417;28;20061;-60
2022/11/15 05:11:30;;;;;;;6.75;4.97;;;12.80;84.90;;;;;;5013025;28;20129;-60
2022/11/15 05:13:56;;;;;;;6.93;5.18;;;12.70;85.10;;;;;;5012752;28;20067;-61
2022/11/15 05:16:22;;;;;;;6.70;4.70;;;12.80;85.00;;;;;;5013026;28;20138;-65
2022/11/15 05:18:51;;;;;;;11.50;6.13;;;12.70;85.30;;;;;;5012852;28;20066;-60
2022/11/15 05:21:17;;;;;;;8.43;5.43;;;12.80;85.10;;;;;;5013042;28;20033;-60
2022/11/15 05:23:43;;;;;;;9.40;4.97;;;12.70;84.90;;;;;;5013108;28;20041;-60
2022/11/15 05:26:09;;;;;;;5.82;4.13;;;12.60;85.20;;;;;;5012667;28;20051;-61
2022/11/15 05:28:36;;;;;;;9.27;6.50;;;12.70;85.30;;;;;;5012993;28;20034;-61
2022/11/15 05:31:13;;;;;;;10.18;5.15;;;12.80;85.00;;;;;;5012745;28;20025;-61
2022/11/15 05:33:40;;;;;;;6.97;4.45;;;12.80;84.80;;;;;;5012865;28;20038;-61
2022/11/15 05:36:57;;;;;;;7.72;5.35;;;12.70;85.00;;;;;;5012830;28;20033;-64
2022/11/15 05:39:22;;;;;;;8.75;5.00;;;12.80;85.10;;;;;;5054104;28;20053;-61
2022/11/15 05:41:54;;;;;;;8.77;4.85;;;12.80;85.00;;;;;;5021303;28;20066;-62
2022/11/15 05:44:22;;;;;;;5.45;4.38;;;12.80;84.80;;;;;;5012747;28;20029;-63
2022/11/15 05:46:53;;;;;;;5.25;4.05;;;12.90;84.90;;;;;;5012631;28;20061;-60
2022/11/15 05:49:21;;;;;;;7.18;4.35;;;12.80;85.20;;;;;;5011458;28;20037;-60
2022/11/15 05:51:49;;;;;;;9.43;4.80;;;12.70;85.80;;;;;;5011135;28;20022;-61
2022/11/15 05:54:16;;;;;;;8.27;5.45;;;12.60;86.30;;;;;;5012192;28;20443;-61
2022/11/15 05:56:42;;;;;;;6.68;5.10;;;12.60;86.80;;;;;;5012704;28;20110;-61
2022/11/15 05:59:09;;;;;;;6.13;5.05;;;12.60;86.90;;;;;;5012258;28;20057;-61
2022/11/15 06:01:35;;;;;;;11.32;6.20;;;12.50;87.40;;;;;;5012602;28;20127;-61
2022/11/15 06:04:01;;;;;;;7.05;5.47;;;12.40;88.30;;;;;;5012211;28;20026;-62
2022/11/15 06:06:28;;;;;;;9.93;6.50;;;12.30;89.00;;;;;;5012114;28;20119;-62
2022/11/15 06:08:53;;;;;;;11.27;6.43;;;12.20;89.60;;;;;;5010787;28;20037;-61
2022/11/15 06:11:19;;;;;;;8.30;6.00;;;12.10;90.10;;;;;;5011937;28;20029;-61
2022/11/15 06:13:45;;;;;;;10.75;7.10;;;12.00;90.40;;;;;;5012222;28;20029;-61
2022/11/15 06:16:10;;;;;;;8.50;6.03;;;11.90;90.70;;;;;;5012026;28;20058;-61
2022/11/15 06:18:37;;;;;;;14.50;7.20;;;11.80;90.80;;;;;;5012335;28;20028;-62
2022/11/15 06:21:03;;;;;;;10.60;6.78;;;11.80;91.10;;;;;;5012143;28;20083;-61
2022/11/15 06:23:32;;;;;;;8.65;6.63;;;11.90;91.20;;;;;;5011859;28;20481;-61
2022/11/15 06:25:58;;;;;;;9.50;6.45;;;11.90;91.20;;;;;;5010691;28;20047;-60
2022/11/15 06:28:24;;;;;;;10.95;7.28;;;11.90;91.20;;;;;;5011754;28;20055;-60
2022/11/15 06:30:50;;;;;;;9.35;6.78;;;11.80;91.20;;;;;;5011584;28;20099;-61
2022/11/15 06:33:15;;;;;;;9.77;7.15;;;11.90;91.40;;;;;;5011580;28;20026;-61
2022/11/15 06:35:41;;;;;;;9.35;7.10;;;11.90;91.20;;;;;;5011904;28;20465;-60
2022/11/15 06:38:09;;;;;;;11.25;6.75;;;12.00;91.10;;;;;;5011826;28;20022;-48
2022/11/15 06:40:36;;;;;;;11.80;6.78;;;12.00;90.90;;;;;;5011593;28;20481;-51
2022/11/15 15:58:31;;;;;;;2.53;1.77;;;13.30;69.00;;;;;;5091374;27;20447;-52
2022/11/15 16:00:57;;;;;;;6.32;2.40;;;13.30;69.00;;;;;;5090669;28;20028;-51
2022/11/15 16:03:23;;;;;;;3.03;1.95;;;13.40;68.80;;;;;;5091159;28;20029;-51
2022/11/15 16:05:50;;;;;;;6.97;1.90;;;13.50;68.60;;;;;;5089896;28;20372;-50
2022/11/15 16:08:21;;;;;;;5.47;2.35;;;13.50;68.70;;;;;;5090677;28;20093;-53
2022/11/15 16:10:46;;;;;;;3.03;2.17;;;13.50;68.70;;;;;;5090331;28;20032;-48
2022/11/15 16:13:12;;;;;;;4.43;2.08;;;13.60;68.50;;;;;;5090034;28;20028;-51
2022/11/15 16:15:38;;;;;;;8.50;2.55;;;13.70;68.20;;;;;;5090819;28;20025;-49
2022/11/15 16:18:05;;;;;;;4.05;2.22;;;13.70;68.10;;;;;;5090306;28;20119;-49
2022/11/15 16:20:49;;;;;;;9.80;1.77;;;13.60;68.40;;;;;;5090038;28;20031;-49
2022/11/15 16:23:17;;;;;;;9.05;2.15;;;13.60;68.50;;;;;;5090170;28;20020;-51
2022/11/15 16:25:49;;;;;;;4.35;2.55;;;13.60;68.60;;;;;;5088758;28;20029;-48
2022/11/15 16:28:27;;;;;;;4.55;2.50;;;13.50;68.60;;;;;;5089958;28;20028;-50
2022/11/15 16:31:10;;;;;;;7.13;1.98;;;13.50;69.10;;;;;;5090101;28;20033;-49
2022/11/15 16:33:36;;;;;;;5.03;2.15;;;13.50;69.10;;;;;;5089770;28;20020;-50
2022/11/15 16:36:04;;;;;;;6.78;2.60;;;13.50;69.10;;;;;;5088700;28;20044;-50
2022/11/15 16:38:30;;;;;;;8.75;3.42;;;13.40;69.50;;;;;;5090020;28;20020;-50
2022/11/15 16:40:56;;;;;;;5.22;2.75;;;13.40;69.70;;;;;;5088243;28;20020;-50
2022/11/15 16:43:22;;;;;;;7.25;2.55;;;13.50;69.70;;;;;;5089816;28;20028;-48
2022/11/15 16:45:50;;;;;;;3.33;2.60;;;13.40;69.60;;;;;;5090037;28;20181;-52
2022/11/15 16:48:26;;;;;;;2.92;2.10;;;13.30;70.00;;;;;;5089686;28;20016;-50
2022/11/15 16:50:56;;;;;;;3.08;2.13;;;13.30;70.10;;;;;;5090005;28;20027;-55
2022/11/15 16:53:22;;;;;;;5.75;3.05;;;13.30;70.20;;;;;;5089942;28;20461;-53
2022/11/15 16:55:48;;;;;;;5.10;2.58;;;13.30;70.40;;;;;;5089527;28;20024;-50
2022/11/15 16:58:14;;;;;;;4.88;2.88;;;13.40;70.00;;;;;;5089323;28;20062;-53
2022/11/15 17:00:43;;;;;;;4.95;2.85;;;13.40;70.10;;;;;;5089421;28;20427;-50
2022/11/15 17:03:09;;;;;;;5.53;3.03;;;13.30;70.30;;;;;;5089786;28;20508;-50
2022/11/15 17:05:35;;;;;;;7.05;3.70;;;13.30;70.50;;;;;;5087743;28;20063;-50
2022/11/15 17:08:00;;;;;;;3.13;2.83;;;13.40;70.40;;;;;;5084968;28;20033;-48
2022/11/15 17:10:26;;;;;;;3.97;2.92;;;13.50;70.10;;;;;;5075726;28;20511;-51
2022/11/15 17:12:54;;;;;;;7.03;2.63;;;13.50;70.00;;;;;;5075797;28;20032;-48
2022/11/15 17:15:20;;;;;;;3.53;2.13;;;13.50;70.30;;;;;;5074452;28;20033;-50
2022/11/15 17:17:52;;;;;;;4.80;2.58;;;13.50;70.50;;;;;;5076044;28;20031;-54
2022/11/15 17:20:19;;;;;;;5.65;2.95;;;13.50;70.70;;;;;;5075875;28;20020;-51
2022/11/15 17:22:46;;;;;;;3.63;2.28;;;13.60;70.40;;;;;;5058302;28;20082;-50
2022/11/15 17:25:12;;;;;;;8.55;2.67;;;13.60;70.70;;;;;;5074226;28;20028;-52
2022/11/15 17:27:38;;;;;;;3.40;2.42;;;13.60;70.60;;;;;;5074494;28;20547;-50
2022/11/15 17:30:05;;;;;;;7.43;2.42;;;13.50;70.80;;;;;;5075695;28;20099;-48
2022/11/15 17:32:31;;;;;;;3.10;2.28;;;13.50;70.90;;;;;;5075412;28;20151;-51
2022/11/15 17:34:56;;;;;;;5.82;2.53;;;13.40;71.30;;;;;;5075811;28;20484;-48
2022/11/15 17:37:22;;;;;;;5.28;2.88;;;13.30;71.50;;;;;;5075350;28;20131;-48
2022/11/15 17:39:48;;;;;;;5.90;2.63;;;13.30;71.70;;;;;;5075259;28;20108;-49
2022/11/15 17:42:13;;;;;;;3.92;2.05;;;13.50;71.50;;;;;;5075673;28;20062;-52
2022/11/15 17:44:39;;;;;;;6.18;3.28;;;13.60;71.10;;;;;;5075064;28;20031;-52
2022/11/15 17:47:05;;;;;;;4.30;2.47;;;13.50;71.30;;;;;;5074707;28;20480;-49
2022/11/15 17:49:30;;;;;;;4.28;2.45;;;13.60;71.30;;;;;;5075042;28;20465;-55
2022/11/15 17:51:56;;;;;;;3.42;2.00;;;13.50;71.20;;;;;;5074713;28;20028;-51
2022/11/15 17:54:22;;;;;;;5.63;2.25;;;13.60;71.50;;;;;;5074751;28;20029;-49
2022/11/15 17:56:47;;;;;;;2.70;1.75;;;13.60;71.30;;;;;;5074501;28;20396;-52
2022/11/15 17:59:13;;;;;;;5.10;2.30;;;13.60;71.40;;;;;;5075031;28;20089;-49
2022/11/15 18:01:39;;;;;;;3.05;1.50;;;13.60;71.50;;;;;;5074520;28;20515;-52
2022/11/15 18:04:07;;;;;;;4.05;2.25;;;13.60;71.40;;;;;;5075425;28;20452;-48
2022/11/15 18:06:34;;;;;;;4.47;2.35;;;13.70;71.10;;;;;;5074749;28;20105;-51
2022/11/15 18:09:01;;;;;;;2.92;2.40;;;13.80;70.90;;;;;;5074546;28;20024;-51
2022/11/15 18:11:49;;;;;;;5.43;2.08;;;13.80;71.00;;;;;;5074535;28;20060;-51
2022/11/15 18:14:15;;;;;;;2.60;1.77;;;13.70;71.00;;;;;;5074893;28;20032;-49
2022/11/15 18:16:41;;;;;;;2.40;2.00;;;13.80;70.80;;;;;;5073000;28;20028;-48
2022/11/15 18:19:11;;;;;;;7.75;2.25;;;13.80;70.70;;;;;;5074646;28;20465;-48
2022/11/15 18:21:54;;;;;;;3.90;2.45;;;13.70;71.00;;;;;;5073334;28;20054;-50
2022/11/15 18:24:22;;;;;;;7.20;2.70;;;13.80;71.10;;;;;;5074218;28;20029;-51
2022/11/15 18:26:48;;;;;;;5.85;2.65;;;13.80;70.80;;;;;;5074184;28;20046;-49
2022/11/15 18:29:15;;;;;;;4.53;3.03;;;13.80;70.90;;;;;;5074176;28;20032;-51
2022/11/15 18:31:41;;;;;;;5.38;3.78;;;13.80;70.80;;;;;;5074148;28;20024;-48
2022/11/15 18:34:08;;;;;;;4.30;2.88;;;13.80;70.70;;;;;;5074038;28;20025;-51
2022/11/15 18:36:35;;;;;;;5.47;2.65;;;13.80;70.80;;;;;;5073015;28;20025;-51
2022/11/15 18:39:03;;;;;;;5.07;2.38;;;13.80;70.70;;;;;;5072460;28;20024;-52
2022/11/15 18:41:29;;;;;;;2.38;2.05;;;13.90;70.40;;;;;;5073897;28;20491;-51
2022/11/15 18:43:59;;;;;;;2.40;2.00;;;13.90;70.60;;;;;;5074399;28;20021;-49
2022/11/15 18:46:27;;;;;;;2.70;1.83;;;13.90;70.50;;;;;;5072309;28;20419;-54
2022/11/15 18:48:54;;;;;;;5.05;2.67;;;14.00;70.70;;;;;;5073754;28;20070;-50
2022/11/15 18:51:22;;;;;;;5.53;2.53;;;14.00;70.80;;;;;;5074307;28;20067;-49
2022/11/15 18:53:48;;;;;;;4.03;2.60;;;14.00;70.80;;;;;;5073760;28;20399;-51
2022/11/15 18:56:18;;;;;;;5.47;1.73;;;14.10;70.70;;;;;;5073429;28;20032;-52
2022/11/15 18:58:46;;;;;;;2.63;1.77;;;14.00;70.90;;;;;;5073961;28;20380;-49
2022/11/15 19:01:16;;;;;;;2.58;1.95;;;14.00;71.10;;;;;;5073663;28;20025;-49
2022/11/15 19:03:45;;;;;;;;;;;14.10;71.20;;;;;;5074442;28;20024;-52
2022/11/15 19:06:16;;;;;;;4.05;2.33;;;14.10;71.20;;;;;;5073730;28;19904;-54
2022/11/15 19:08:43;;;;;;;3.78;2.20;;;14.10;72.20;;;;;;5074118;28;20484;-48
2022/11/15 19:11:15;;;;;;;5.88;1.98;;;14.10;72.30;;;;;;5073785;28;20421;-51
2022/11/15 19:13:42;;;;;;;1.98;1.73;;;14.10;72.60;;;;;;5073494;28;20373;-51
2022/11/15 19:16:14;;;;;;;2.85;2.08;;;14.10;72.80;;;;;;5073323;28;20024;-52
2022/11/15 19:18:41;;;;;;;2.15;1.67;;;14.10;72.90;;;;;;5073931;28;20025;-48
2022/11/15 19:21:11;;;;;;;2.45;1.65;;;14.20;72.90;;;;;;5073364;28;20024;-50
2022/11/15 19:23:38;;;;;;;2.53;1.80;;;14.20;72.90;;;;;;5073546;28;20484;-52
2022/11/15 19:26:08;;;;;;;2.75;1.42;;;14.20;72.90;;;;;;5073526;28;20484;-51
2022/11/15 19:28:34;;;;;;;2.70;1.53;;;14.30;73.00;;;;;;5073156;28;20026;-50
2022/11/15 19:31:09;;;;;;;2.20;1.98;;;14.20;73.10;;;;;;5072875;28;20107;-49
2022/11/15 19:33:34;;;;;;;4.65;1.90;;;14.10;73.40;;;;;;5073675;28;20029;-49
2022/11/15 19:36:01;;;;;;;4.35;1.88;;;14.20;73.50;;;;;;5073144;28;20028;-51
2022/11/15 19:38:30;;;;;;;1.98;1.65;;;14.30;73.20;;;;;;5073444;28;20020;-50
2022/11/15 19:41:00;;;;;;;3.17;1.90;;;14.20;73.50;;;;;;5073361;28;20020;-50
2022/11/15 19:43:26;;;;;;;2.05;1.70;;;14.30;73.40;;;;;;5073382;28;20549;-51
2022/11/15 19:45:57;;;;;;;3.45;1.90;;;14.20;73.80;;;;;;5072863;28;20024;-48
2022/11/15 19:48:23;;;;;;;2.97;2.05;;;14.20;73.80;;;;;;5071615;28;20033;-50
2022/11/15 19:50:49;;;;;;;3.05;2.20;;;14.20;73.90;;;;;;5072927;28;20029;-53
2022/11/15 19:53:15;;;;;;;4.82;2.47;;;14.10;74.30;;;;;;5073103;28;20036;-51
2022/11/15 19:55:41;;;;;;;2.92;2.22;;;14.20;74.40;;;;;;5073288;28;20031;-49
2022/11/15 19:58:07;;;;;;;3.08;1.95;;;14.20;74.50;;;;;;5071622;28;20127;-49
2022/11/15 20:00:33;;;;;;;3.97;2.35;;;14.10;74.70;;;;;;5073216;28;20492;-49
2022/11/15 20:02:58;;;;;;;3.40;1.98;;;14.00;75.40;;;;;;5072955;28;20107;-50
2022/11/15 20:05:25;;;;;;;7.15;1.95;;;13.80;76.20;;;;;;5079303;28;20051;-61
2022/11/15 20:07:50;;;;;;;2.22;1.75;;;13.80;76.50;;;;;;5074323;28;20040;-62
2022/11/15 20:10:16;;;;;;;2.60;2.20;;;13.80;76.70;;;;;;5072827;28;20028;-61
2022/11/15 20:12:42;;;;;;;2.47;1.90;;;13.80;77.10;;;;;;5073292;28;20028;-62
2022/11/15 20:15:08;;;;;;;3.38;2.30;;;13.80;77.10;;;;;;5072790;28;20048;-62
2022/11/15 20:17:34;;;;;;;3.13;1.90;;;13.80;77.50;;;;;;5073430;28;20024;-62
2022/11/15 20:20:00;;;;;;;2.38;1.90;;;13.70;77.90;;;;;;5073328;28;20488;-62
2022/11/15 20:22:26;;;;;;;2.38;1.90;;;13.60;78.40;;;;;;5073110;28;20024;-61
2022/11/15 20:24:51;;;;;;;4.30;2.53;;;13.50;78.60;;;;;;5072873;28;20031;-61
2022/11/15 20:27:17;;;;;;;4.57;2.35;;;13.50;79.20;;;;;;5072590;28;20017;-63
2022/11/15 20:29:43;;;;;;;5.07;2.90;;;13.50;78.90;;;;;;5071563;28;20020;-62
2022/11/15 20:32:10;;;;;;;4.15;3.00;;;13.40;79.40;;;;;;5072404;28;20055;-61
2022/11/15 20:34:35;;;;;;;3.15;2.67;;;13.40;79.70;;;;;;5071213;28;20029;-61
2022/11/15 20:37:01;;;;;;;3.80;2.80;;;13.30;80.50;;;;;;5072364;28;20380;-61
2022/11/15 20:39:27;;;;;;;3.17;2.17;;;13.30;80.70;;;;;;5072467;28;20043;-62
2022/11/15 20:41:52;;;;;;;4.95;2.90;;;13.20;81.10;;;;;;5072523;28;20059;-62
2022/11/15 20:44:18;;;;;;;5.68;3.30;;;13.30;81.00;;;;;;5074480;28;20036;-62
2022/11/15 20:46:43;;;;;;;5.50;3.47;;;13.20;81.50;;;;;;5076135;28;20028;-63
2022/11/15 20:49:09;;;;;;;4.50;3.53;;;13.10;81.50;;;;;;5076543;28;20027;-62
2022/11/15 20:51:35;;;;;;;4.80;2.97;;;13.10;82.10;;;;;;5076379;28;20032;-61
2022/11/15 20:54:02;;;;;;;4.50;2.80;;;13.10;82.00;;;;;;5075900;28;20403;-61
2022/11/15 20:56:28;;;;;;;3.78;2.63;;;13.20;81.90;;;;;;5075620;28;20105;-62
2022/11/15 20:58:55;;;;;;;3.20;2.38;;;13.10;82.00;;;;;;5076637;28;20032;-60
2022/11/15 21:01:23;;;;;;;5.57;3.10;;;13.10;82.20;;;;;;5075013;28;20021;-61
2022/11/15 21:03:49;;;;;;;2.90;2.60;;;13.20;82.30;;;;;;5076211;28;20044;-61
2022/11/15 21:06:16;;;;;;;3.30;2.17;;;13.10;82.30;;;;;;5076520;28;20020;-61
2022/11/15 21:14:10;;;;;;;4.30;2.50;;;13.20;82.50;;;;;;5076390;28;20032;-61
2022/11/15 21:16:36;;;;;;;3.97;2.70;;;13.20;82.70;;;;;;5076316;28;20029;-62
2022/11/15 21:19:02;;;;;;;4.03;2.60;;;13.20;82.40;;;;;;5075823;28;20047;-61
2022/11/15 21:21:28;;;;;;;4.30;2.75;;;13.10;83.00;;;;;;5075564;28;20017;-62
2022/11/15 21:23:53;;;;;;;3.53;2.08;;;13.10;82.60;;;;;;5075850;28;20028;-61
2022/11/15 21:26:19;;;;;;;4.20;2.67;;;13.20;82.70;;;;;;5075727;28;20377;-62
2022/11/15 21:28:44;;;;;;;4.00;2.75;;;13.20;83.00;;;;;;5075286;28;20024;-62
2022/11/15 21:31:10;;;;;;;3.25;2.95;;;13.20;82.40;;;;;;5075659;28;20028;-61
2022/11/15 21:33:36;;;;;;;5.38;2.45;;;13.20;82.30;;;;;;5075499;28;20024;-61
2022/11/15 21:36:01;;;;;;;3.65;2.72;;;13.20;82.70;;;;;;5075956;28;20016;-62
2022/11/15 21:38:27;;;;;;;3.40;2.88;;;13.20;82.40;;;;;;5075395;28;20028;-61
2022/11/15 21:40:53;;;;;;;3.15;2.53;;;13.30;82.30;;;;;;5075430;28;20021;-61
2022/11/15 21:43:19;;;;;;;7.18;2.70;;;13.30;82.20;;;;;;5075357;28;20025;-61
2022/11/15 21:45:59;;;;;;;3.70;2.42;;;13.30;82.30;;;;;;5075204;28;20024;-61
2022/11/15 21:48:26;;;;;;;;;;;13.30;81.90;;;;;;5074319;28;20059;-60
2022/11/15 21:50:56;;;;;;;3.38;2.45;;;13.30;82.20;;;;;;5073898;28;19904;-62
2022/11/15 21:53:21;;;;;;;;;;;13.30;82.30;;;;;;5075851;28;20032;-61
2022/11/15 21:55:47;;;;;;;6.50;3.90;;;13.30;82.40;;;;;;5073657;28;19928;-62
2022/11/15 21:58:13;;;;;;;3.28;2.40;;;13.10;82.70;;;;;;5073437;28;20075;-61
2022/11/15 22:03:23;;;;;;;7.20;4.28;;;13.20;82.60;;;;;;5075617;28;20035;-61
2022/11/15 22:05:48;;;;;;;5.07;2.35;;;13.20;82.80;;;;;;5073726;28;20120;-64
2022/11/15 22:08:14;;;;;;;4.07;2.25;;;13.10;82.80;;;;;;5074908;28;20362;-62
2022/11/15 22:10:40;;;;;;;3.30;2.25;;;13.10;82.80;;;;;;5074807;28;20036;-61
2022/11/15 22:13:05;;;;;;;5.57;2.65;;;13.10;83.10;;;;;;5073679;28;20410;-62
2022/11/15 22:15:31;;;;;;;3.25;2.17;;;13.00;83.60;;;;;;5074818;28;20104;-62
2022/11/15 22:17:56;;;;;;;4.22;2.50;;;13.00;83.40;;;;;;5075023;28;20476;-61
2022/11/15 22:20:22;;;;;;;5.97;2.38;;;12.90;83.70;;;;;;5075062;28;20037;-61
2022/11/15 22:22:48;;;;;;;5.18;2.40;;;13.00;83.70;;;;;;5074987;28;20047;-62